sensor_id;sensor_type;location;lat;lon;timestamp;P1;durP1;ratioP1;P2;durP2;ratioP2
58470;SDS011;44258;51.288;12.068;2023-07-13T00:00:37;4.32;;;1.63;;
58470;SDS011;44258;51.288;12.068;2023-07-13T00:03:26;6.22;;;1.90;;
58470;SDS011;44258;51.288;12.068;2023-07-13T00:06:12;3.97;;;1.80;;
58470;SDS011;44258;51.288;12.068;2023-07-13T00:08:59;4.47;;;1.88;;
58470;SDS011;44258;51.288;12.068;2023-07-13T00:11:50;8.90;;;1.92;;
58470;SDS011;44258;51.288;12.068;2023-07-13T00:14:40;4.95;;;2.10;;
58470;SDS011;44258;51.288;12.068;2023-07-13T00:17:27;4.75;;;1.98;;
58470;SDS011;44258;51.288;12.068;2023-07-13T00:20:15;5.00;;;2.30;;
58470;SDS011;44258;51.288;12.068;2023-07-13T00:23:04;4.88;;;2.15;;
58470;SDS011;44258;51.288;12.068;2023-07-13T00:25:54;5.50;;;2.05;;
58470;SDS011;44258;51.288;12.068;2023-07-13T00:28:45;4.97;;;2.05;;
58470;SDS011;44258;51.288;12.068;2023-07-13T00:31:33;4.60;;;2.05;;
58470;SDS011;44258;51.288;12.068;2023-07-13T00:34:21;5.50;;;2.00;;
58470;SDS011;44258;51.288;12.068;2023-07-13T00:37:08;6.00;;;2.17;;
58470;SDS011;44258;51.288;12.068;2023-07-13T00:39:55;3.92;;;1.90;;
58470;SDS011;44258;51.288;12.068;2023-07-13T00:42:42;5.95;;;2.10;;
58470;SDS011;44258;51.288;12.068;2023-07-13T00:48:56;10.38;;;2.80;;
58470;SDS011;44258;51.288;12.068;2023-07-13T00:51:47;9.57;;;1.98;;
58470;SDS011;44258;51.288;12.068;2023-07-13T00:54:38;7.78;;;2.22;;
58470;SDS011;44258;51.288;12.068;2023-07-13T00:57:29;7.07;;;2.15;;
58470;SDS011;44258;51.288;12.068;2023-07-13T01:00:18;5.50;;;2.50;;
58470;SDS011;44258;51.288;12.068;2023-07-13T01:03:08;7.05;;;2.17;;
58470;SDS011;44258;51.288;12.068;2023-07-13T01:05:56;5.47;;;2.20;;
58470;SDS011;44258;51.288;12.068;2023-07-13T01:08:49;5.80;;;1.95;;
58470;SDS011;44258;51.288;12.068;2023-07-13T01:11:36;3.45;;;1.90;;
58470;SDS011;44258;51.288;12.068;2023-07-13T01:14:26;7.15;;;2.05;;
58470;SDS011;44258;51.288;12.068;2023-07-13T01:17:13;6.82;;;2.50;;
58470;SDS011;44258;51.288;12.068;2023-07-13T01:20:00;5.85;;;1.88;;
58470;SDS011;44258;51.288;12.068;2023-07-13T01:22:49;4.97;;;1.90;;
58470;SDS011;44258;51.288;12.068;2023-07-13T01:25:36;4.53;;;1.95;;
58470;SDS011;44258;51.288;12.068;2023-07-13T01:28:24;3.95;;;1.70;;
58470;SDS011;44258;51.288;12.068;2023-07-13T01:31:13;6.78;;;2.10;;
58470;SDS011;44258;51.288;12.068;2023-07-13T01:33:59;7.60;;;2.80;;
58470;SDS011;44258;51.288;12.068;2023-07-13T01:36:46;4.85;;;1.90;;
58470;SDS011;44258;51.288;12.068;2023-07-13T01:39:35;4.10;;;1.85;;
58470;SDS011;44258;51.288;12.068;2023-07-13T01:42:23;6.55;;;2.00;;
58470;SDS011;44258;51.288;12.068;2023-07-13T01:45:10;5.53;;;2.15;;
58470;SDS011;44258;51.288;12.068;2023-07-13T01:47:57;6.60;;;2.30;;
58470;SDS011;44258;51.288;12.068;2023-07-13T01:50:47;4.60;;;2.10;;
58470;SDS011;44258;51.288;12.068;2023-07-13T01:53:34;6.90;;;2.33;;
58470;SDS011;44258;51.288;12.068;2023-07-13T01:56:23;5.82;;;2.25;;
58470;SDS011;44258;51.288;12.068;2023-07-13T01:59:10;5.13;;;2.33;;
58470;SDS011;44258;51.288;12.068;2023-07-13T02:01:57;5.57;;;2.50;;
58470;SDS011;44258;51.288;12.068;2023-07-13T02:04:44;7.65;;;2.42;;
58470;SDS011;44258;51.288;12.068;2023-07-13T02:07:31;9.90;;;2.40;;
58470;SDS011;44258;51.288;12.068;2023-07-13T02:10:19;6.20;;;2.40;;
58470;SDS011;44258;51.288;12.068;2023-07-13T02:13:07;6.22;;;2.60;;
58470;SDS011;44258;51.288;12.068;2023-07-13T02:15:54;6.13;;;2.25;;
58470;SDS011;44258;51.288;12.068;2023-07-13T02:18:41;6.93;;;2.55;;
58470;SDS011;44258;51.288;12.068;2023-07-13T02:21:28;9.02;;;2.97;;
58470;SDS011;44258;51.288;12.068;2023-07-13T02:24:15;6.32;;;2.55;;
58470;SDS011;44258;51.288;12.068;2023-07-13T02:27:04;6.50;;;2.72;;
58470;SDS011;44258;51.288;12.068;2023-07-13T02:29:53;8.20;;;2.40;;
58470;SDS011;44258;51.288;12.068;2023-07-13T02:32:40;7.32;;;2.25;;
58470;SDS011;44258;51.288;12.068;2023-07-13T02:35:30;6.15;;;3.00;;
58470;SDS011;44258;51.288;12.068;2023-07-13T02:38:18;5.47;;;2.40;;
58470;SDS011;44258;51.288;12.068;2023-07-13T02:41:06;5.78;;;2.50;;
58470;SDS011;44258;51.288;12.068;2023-07-13T02:43:54;5.88;;;2.72;;
58470;SDS011;44258;51.288;12.068;2023-07-13T02:46:49;6.30;;;2.60;;
58470;SDS011;44258;51.288;12.068;2023-07-13T02:49:36;6.60;;;3.08;;
58470;SDS011;44258;51.288;12.068;2023-07-13T02:52:23;6.28;;;3.25;;
58470;SDS011;44258;51.288;12.068;2023-07-13T02:55:09;7.85;;;3.22;;
58470;SDS011;44258;51.288;12.068;2023-07-13T02:57:56;6.95;;;2.80;;
58470;SDS011;44258;51.288;12.068;2023-07-13T03:00:43;8.70;;;2.90;;
58470;SDS011;44258;51.288;12.068;2023-07-13T03:03:33;7.90;;;2.63;;
58470;SDS011;44258;51.288;12.068;2023-07-13T03:06:19;7.13;;;2.70;;
58470;SDS011;44258;51.288;12.068;2023-07-13T03:09:08;4.72;;;2.58;;
58470;SDS011;44258;51.288;12.068;2023-07-13T03:11:55;8.27;;;2.90;;
58470;SDS011;44258;51.288;12.068;2023-07-13T03:14:42;7.28;;;2.90;;
58470;SDS011;44258;51.288;12.068;2023-07-13T03:17:28;6.47;;;2.50;;
58470;SDS011;44258;51.288;12.068;2023-07-13T03:20:17;7.55;;;2.75;;
58470;SDS011;44258;51.288;12.068;2023-07-13T03:23:04;5.45;;;2.50;;
58470;SDS011;44258;51.288;12.068;2023-07-13T03:26:00;4.80;;;2.60;;
58470;SDS011;44258;51.288;12.068;2023-07-13T03:28:48;5.45;;;2.67;;
58470;SDS011;44258;51.288;12.068;2023-07-13T03:31:36;5.03;;;2.60;;
58470;SDS011;44258;51.288;12.068;2023-07-13T03:34:24;6.93;;;2.80;;
58470;SDS011;44258;51.288;12.068;2023-07-13T03:37:13;6.70;;;3.00;;
58470;SDS011;44258;51.288;12.068;2023-07-13T03:39:59;8.88;;;3.10;;
58470;SDS011;44258;51.288;12.068;2023-07-13T03:45:33;12.45;;;3.42;;
58470;SDS011;44258;51.288;12.068;2023-07-13T03:48:20;12.93;;;3.17;;
58470;SDS011;44258;51.288;12.068;2023-07-13T03:51:07;9.00;;;3.50;;
58470;SDS011;44258;51.288;12.068;2023-07-13T03:53:55;9.75;;;3.08;;
58470;SDS011;44258;51.288;12.068;2023-07-13T03:56:43;8.82;;;3.72;;
58470;SDS011;44258;51.288;12.068;2023-07-13T04:02:16;8.80;;;3.22;;
58470;SDS011;44258;51.288;12.068;2023-07-13T04:05:03;9.77;;;3.55;;
58470;SDS011;44258;51.288;12.068;2023-07-13T04:07:50;8.40;;;3.85;;
58470;SDS011;44258;51.288;12.068;2023-07-13T04:10:39;9.45;;;3.65;;
58470;SDS011;44258;51.288;12.068;2023-07-13T04:13:26;8.90;;;3.20;;
58470;SDS011;44258;51.288;12.068;2023-07-13T04:16:13;9.40;;;3.45;;
58470;SDS011;44258;51.288;12.068;2023-07-13T04:19:01;8.40;;;3.60;;
58470;SDS011;44258;51.288;12.068;2023-07-13T04:21:48;8.13;;;3.90;;
58470;SDS011;44258;51.288;12.068;2023-07-13T04:27:23;9.35;;;3.78;;
58470;SDS011;44258;51.288;12.068;2023-07-13T04:30:10;12.63;;;4.60;;
58470;SDS011;44258;51.288;12.068;2023-07-13T04:32:57;8.27;;;3.90;;
58470;SDS011;44258;51.288;12.068;2023-07-13T04:35:44;8.30;;;4.40;;
58470;SDS011;44258;51.288;12.068;2023-07-13T04:38:32;9.70;;;3.80;;
58470;SDS011;44258;51.288;12.068;2023-07-13T04:41:19;8.38;;;4.07;;
58470;SDS011;44258;51.288;12.068;2023-07-13T04:44:09;11.02;;;4.90;;
58470;SDS011;44258;51.288;12.068;2023-07-13T04:46:56;9.25;;;4.13;;
58470;SDS011;44258;51.288;12.068;2023-07-13T04:49:43;10.23;;;4.07;;
58470;SDS011;44258;51.288;12.068;2023-07-13T04:52:30;8.60;;;3.95;;
58470;SDS011;44258;51.288;12.068;2023-07-13T04:55:18;8.27;;;4.10;;
58470;SDS011;44258;51.288;12.068;2023-07-13T04:58:06;10.00;;;4.38;;
58470;SDS011;44258;51.288;12.068;2023-07-13T05:00:54;7.40;;;4.00;;
58470;SDS011;44258;51.288;12.068;2023-07-13T05:03:46;10.15;;;4.18;;
58470;SDS011;44258;51.288;12.068;2023-07-13T05:09:19;9.27;;;3.80;;
58470;SDS011;44258;51.288;12.068;2023-07-13T05:12:07;7.65;;;3.80;;
58470;SDS011;44258;51.288;12.068;2023-07-13T05:14:54;11.85;;;3.70;;
58470;SDS011;44258;51.288;12.068;2023-07-13T05:17:43;6.95;;;3.80;;
58470;SDS011;44258;51.288;12.068;2023-07-13T05:20:30;12.98;;;4.32;;
58470;SDS011;44258;51.288;12.068;2023-07-13T05:23:17;11.45;;;4.63;;
58470;SDS011;44258;51.288;12.068;2023-07-13T05:26:06;9.02;;;4.35;;
58470;SDS011;44258;51.288;12.068;2023-07-13T05:28:56;10.25;;;4.07;;
58470;SDS011;44258;51.288;12.068;2023-07-13T05:31:43;10.13;;;4.40;;
58470;SDS011;44258;51.288;12.068;2023-07-13T05:34:31;9.35;;;4.25;;
58470;SDS011;44258;51.288;12.068;2023-07-13T05:37:18;7.57;;;3.53;;
58470;SDS011;44258;51.288;12.068;2023-07-13T05:40:06;6.97;;;3.60;;
58470;SDS011;44258;51.288;12.068;2023-07-13T05:42:53;7.93;;;3.80;;
58470;SDS011;44258;51.288;12.068;2023-07-13T05:45:40;8.57;;;3.88;;
58470;SDS011;44258;51.288;12.068;2023-07-13T05:48:27;12.07;;;3.70;;
58470;SDS011;44258;51.288;12.068;2023-07-13T05:51:15;6.63;;;3.00;;
58470;SDS011;44258;51.288;12.068;2023-07-13T05:54:02;5.95;;;2.90;;
58470;SDS011;44258;51.288;12.068;2023-07-13T05:56:49;9.10;;;3.60;;
58470;SDS011;44258;51.288;12.068;2023-07-13T05:59:36;8.18;;;3.40;;
58470;SDS011;44258;51.288;12.068;2023-07-13T06:02:23;6.82;;;3.17;;
58470;SDS011;44258;51.288;12.068;2023-07-13T06:05:11;10.50;;;3.42;;
58470;SDS011;44258;51.288;12.068;2023-07-13T06:08:00;8.23;;;3.63;;
58470;SDS011;44258;51.288;12.068;2023-07-13T06:10:47;8.27;;;3.38;;
58470;SDS011;44258;51.288;12.068;2023-07-13T06:13:35;7.75;;;3.55;;
58470;SDS011;44258;51.288;12.068;2023-07-13T06:16:22;7.95;;;3.85;;
58470;SDS011;44258;51.288;12.068;2023-07-13T06:19:09;9.27;;;3.45;;
58470;SDS011;44258;51.288;12.068;2023-07-13T06:21:56;6.60;;;3.17;;
58470;SDS011;44258;51.288;12.068;2023-07-13T06:24:46;7.10;;;3.25;;
58470;SDS011;44258;51.288;12.068;2023-07-13T06:27:32;7.13;;;2.75;;
58470;SDS011;44258;51.288;12.068;2023-07-13T06:30:19;6.60;;;2.58;;
58470;SDS011;44258;51.288;12.068;2023-07-13T06:33:06;6.15;;;2.30;;
58470;SDS011;44258;51.288;12.068;2023-07-13T06:35:53;5.22;;;2.17;;
58470;SDS011;44258;51.288;12.068;2023-07-13T06:38:41;5.35;;;2.10;;
58470;SDS011;44258;51.288;12.068;2023-07-13T06:41:29;5.80;;;2.20;;
58470;SDS011;44258;51.288;12.068;2023-07-13T06:44:16;6.68;;;2.38;;
58470;SDS011;44258;51.288;12.068;2023-07-13T06:47:04;4.40;;;2.17;;
58470;SDS011;44258;51.288;12.068;2023-07-13T06:49:51;5.63;;;1.85;;
58470;SDS011;44258;51.288;12.068;2023-07-13T06:52:38;5.40;;;1.83;;
58470;SDS011;44258;51.288;12.068;2023-07-13T06:55:26;5.93;;;2.08;;
58470;SDS011;44258;51.288;12.068;2023-07-13T06:58:14;5.85;;;2.40;;
58470;SDS011;44258;51.288;12.068;2023-07-13T07:01:02;5.95;;;2.17;;
58470;SDS011;44258;51.288;12.068;2023-07-13T07:03:49;5.95;;;2.20;;
58470;SDS011;44258;51.288;12.068;2023-07-13T07:06:36;5.65;;;2.13;;
58470;SDS011;44258;51.288;12.068;2023-07-13T07:09:23;5.15;;;2.20;;
58470;SDS011;44258;51.288;12.068;2023-07-13T07:12:09;3.65;;;1.70;;
58470;SDS011;44258;51.288;12.068;2023-07-13T07:14:58;4.38;;;1.88;;
58470;SDS011;44258;51.288;12.068;2023-07-13T07:17:44;4.10;;;1.80;;
58470;SDS011;44258;51.288;12.068;2023-07-13T07:20:34;6.05;;;2.05;;
58470;SDS011;44258;51.288;12.068;2023-07-13T07:23:21;5.38;;;1.60;;
58470;SDS011;44258;51.288;12.068;2023-07-13T07:26:08;6.32;;;1.80;;
58470;SDS011;44258;51.288;12.068;2023-07-13T07:28:55;7.07;;;1.85;;
58470;SDS011;44258;51.288;12.068;2023-07-13T07:31:45;5.78;;;2.00;;
58470;SDS011;44258;51.288;12.068;2023-07-13T07:34:31;7.35;;;2.22;;
58470;SDS011;44258;51.288;12.068;2023-07-13T07:37:18;4.18;;;1.70;;
58470;SDS011;44258;51.288;12.068;2023-07-13T07:40:06;6.40;;;1.60;;
58470;SDS011;44258;51.288;12.068;2023-07-13T07:42:55;8.43;;;1.90;;
58470;SDS011;44258;51.288;12.068;2023-07-13T07:45:43;5.95;;;1.80;;
58470;SDS011;44258;51.288;12.068;2023-07-13T07:48:32;6.32;;;1.88;;
58470;SDS011;44258;51.288;12.068;2023-07-13T07:51:19;2.72;;;1.60;;
58470;SDS011;44258;51.288;12.068;2023-07-13T07:54:06;4.70;;;1.90;;
58470;SDS011;44258;51.288;12.068;2023-07-13T07:56:53;4.45;;;1.60;;
58470;SDS011;44258;51.288;12.068;2023-07-13T07:59:43;4.38;;;1.80;;
58470;SDS011;44258;51.288;12.068;2023-07-13T08:02:29;3.92;;;1.90;;
58470;SDS011;44258;51.288;12.068;2023-07-13T08:05:18;9.57;;;2.00;;
58470;SDS011;44258;51.288;12.068;2023-07-13T08:08:06;9.70;;;2.78;;
58470;SDS011;44258;51.288;12.068;2023-07-13T08:10:52;6.45;;;2.03;;
58470;SDS011;44258;51.288;12.068;2023-07-13T08:13:40;10.93;;;3.05;;
58470;SDS011;44258;51.288;12.068;2023-07-13T08:16:27;7.43;;;2.13;;
58470;SDS011;44258;51.288;12.068;2023-07-13T08:19:14;7.13;;;1.75;;
58470;SDS011;44258;51.288;12.068;2023-07-13T08:22:02;5.93;;;2.78;;
58470;SDS011;44258;51.288;12.068;2023-07-13T08:24:49;5.55;;;2.15;;
58470;SDS011;44258;51.288;12.068;2023-07-13T08:27:42;5.60;;;2.05;;
58470;SDS011;44258;51.288;12.068;2023-07-13T08:30:29;7.43;;;1.90;;
58470;SDS011;44258;51.288;12.068;2023-07-13T08:33:16;4.03;;;2.00;;
58470;SDS011;44258;51.288;12.068;2023-07-13T08:36:09;6.20;;;2.03;;
58470;SDS011;44258;51.288;12.068;2023-07-13T08:38:57;7.25;;;2.00;;
58470;SDS011;44258;51.288;12.068;2023-07-13T08:41:44;4.82;;;1.95;;
58470;SDS011;44258;51.288;12.068;2023-07-13T08:44:37;9.00;;;2.65;;
58470;SDS011;44258;51.288;12.068;2023-07-13T08:47:35;5.05;;;2.20;;
58470;SDS011;44258;51.288;12.068;2023-07-13T08:50:27;5.63;;;2.10;;
58470;SDS011;44258;51.288;12.068;2023-07-13T08:53:21;4.82;;;2.03;;
58470;SDS011;44258;51.288;12.068;2023-07-13T08:56:13;6.93;;;1.90;;
58470;SDS011;44258;51.288;12.068;2023-07-13T08:59:05;6.03;;;1.90;;
58470;SDS011;44258;51.288;12.068;2023-07-13T09:02:08;6.28;;;2.20;;
58470;SDS011;44258;51.288;12.068;2023-07-13T09:05:09;4.50;;;1.63;;
58470;SDS011;44258;51.288;12.068;2023-07-13T09:08:05;4.47;;;1.98;;
58470;SDS011;44258;51.288;12.068;2023-07-13T09:11:05;5.80;;;1.85;;
58470;SDS011;44258;51.288;12.068;2023-07-13T09:14:02;4.70;;;2.15;;
58470;SDS011;44258;51.288;12.068;2023-07-13T09:17:17;5.45;;;2.20;;
58470;SDS011;44258;51.288;12.068;2023-07-13T09:20:09;7.03;;;1.98;;
58470;SDS011;44258;51.288;12.068;2023-07-13T09:23:10;4.38;;;2.03;;
58470;SDS011;44258;51.288;12.068;2023-07-13T09:26:02;5.50;;;2.08;;
58470;SDS011;44258;51.288;12.068;2023-07-13T09:28:53;2.92;;;1.33;;
58470;SDS011;44258;51.288;12.068;2023-07-13T09:31:47;6.85;;;2.70;;
58470;SDS011;44258;51.288;12.068;2023-07-13T09:34:39;13.15;;;2.20;;
58470;SDS011;44258;51.288;12.068;2023-07-13T09:37:28;3.78;;;1.88;;
58470;SDS011;44258;51.288;12.068;2023-07-13T09:40:20;5.20;;;2.00;;
58470;SDS011;44258;51.288;12.068;2023-07-13T09:43:13;4.72;;;1.90;;
58470;SDS011;44258;51.288;12.068;2023-07-13T09:46:02;3.72;;;1.70;;
58470;SDS011;44258;51.288;12.068;2023-07-13T09:48:51;4.45;;;1.23;;
58470;SDS011;44258;51.288;12.068;2023-07-13T09:51:39;4.95;;;1.80;;
58470;SDS011;44258;51.288;12.068;2023-07-13T09:54:28;6.78;;;2.25;;
58470;SDS011;44258;51.288;12.068;2023-07-13T09:57:17;4.15;;;2.05;;
58470;SDS011;44258;51.288;12.068;2023-07-13T10:00:18;4.60;;;1.92;;
58470;SDS011;44258;51.288;12.068;2023-07-13T10:03:16;4.72;;;1.60;;
58470;SDS011;44258;51.288;12.068;2023-07-13T10:06:12;4.25;;;1.77;;
58470;SDS011;44258;51.288;12.068;2023-07-13T10:09:01;6.82;;;2.55;;
58470;SDS011;44258;51.288;12.068;2023-07-13T10:11:49;4.57;;;1.90;;
58470;SDS011;44258;51.288;12.068;2023-07-13T10:14:37;4.00;;;2.05;;
58470;SDS011;44258;51.288;12.068;2023-07-13T10:17:28;3.67;;;1.70;;
58470;SDS011;44258;51.288;12.068;2023-07-13T10:20:18;6.40;;;1.75;;
58470;SDS011;44258;51.288;12.068;2023-07-13T10:23:10;5.55;;;1.83;;
58470;SDS011;44258;51.288;12.068;2023-07-13T10:26:09;3.58;;;1.85;;
58470;SDS011;44258;51.288;12.068;2023-07-13T10:29:05;2.92;;;1.50;;
58470;SDS011;44258;51.288;12.068;2023-07-13T10:31:56;5.18;;;1.73;;
58470;SDS011;44258;51.288;12.068;2023-07-13T10:34:44;7.43;;;1.70;;
58470;SDS011;44258;51.288;12.068;2023-07-13T10:37:36;5.03;;;1.88;;
58470;SDS011;44258;51.288;12.068;2023-07-13T10:40:33;4.07;;;1.50;;
58470;SDS011;44258;51.288;12.068;2023-07-13T10:43:25;3.95;;;1.73;;
58470;SDS011;44258;51.288;12.068;2023-07-13T10:46:16;7.57;;;1.67;;
58470;SDS011;44258;51.288;12.068;2023-07-13T10:49:06;2.45;;;1.50;;
58470;SDS011;44258;51.288;12.068;2023-07-13T10:51:56;3.55;;;1.50;;
58470;SDS011;44258;51.288;12.068;2023-07-13T10:54:43;2.92;;;1.70;;
58470;SDS011;44258;51.288;12.068;2023-07-13T10:57:34;2.53;;;1.33;;
58470;SDS011;44258;51.288;12.068;2023-07-13T11:00:32;4.90;;;1.50;;
58470;SDS011;44258;51.288;12.068;2023-07-13T11:03:31;4.43;;;1.63;;
58470;SDS011;44258;51.288;12.068;2023-07-13T11:06:29;3.78;;;1.23;;
58470;SDS011;44258;51.288;12.068;2023-07-13T11:09:32;4.60;;;1.35;;
58470;SDS011;44258;51.288;12.068;2023-07-13T11:12:26;4.18;;;1.52;;
58470;SDS011;44258;51.288;12.068;2023-07-13T11:15:44;2.85;;;1.20;;
58470;SDS011;44258;51.288;12.068;2023-07-13T11:18:34;3.47;;;1.40;;
58470;SDS011;44258;51.288;12.068;2023-07-13T11:21:22;2.28;;;1.10;;
58470;SDS011;44258;51.288;12.068;2023-07-13T11:24:16;4.85;;;1.35;;
58470;SDS011;44258;51.288;12.068;2023-07-13T11:27:11;1.92;;;1.20;;
58470;SDS011;44258;51.288;12.068;2023-07-13T11:33:23;4.43;;;1.10;;
58470;SDS011;44258;51.288;12.068;2023-07-13T11:36:13;2.75;;;1.15;;
58470;SDS011;44258;51.288;12.068;2023-07-13T11:39:04;2.70;;;1.00;;
58470;SDS011;44258;51.288;12.068;2023-07-13T11:41:57;6.40;;;2.00;;
58470;SDS011;44258;51.288;12.068;2023-07-13T11:44:48;1.65;;;0.90;;
58470;SDS011;44258;51.288;12.068;2023-07-13T11:47:39;2.00;;;1.15;;
58470;SDS011;44258;51.288;12.068;2023-07-13T11:50:26;3.38;;;1.48;;
58470;SDS011;44258;51.288;12.068;2023-07-13T11:53:13;3.45;;;1.05;;
58470;SDS011;44258;51.288;12.068;2023-07-13T11:56:01;1.58;;;0.88;;
58470;SDS011;44258;51.288;12.068;2023-07-13T11:58:49;3.03;;;1.38;;
58470;SDS011;44258;51.288;12.068;2023-07-13T12:01:42;2.35;;;1.00;;
58470;SDS011;44258;51.288;12.068;2023-07-13T12:04:36;2.83;;;1.02;;
58470;SDS011;44258;51.288;12.068;2023-07-13T12:07:24;6.70;;;1.33;;
58470;SDS011;44258;51.288;12.068;2023-07-13T12:10:17;3.00;;;1.10;;
58470;SDS011;44258;51.288;12.068;2023-07-13T12:13:08;4.80;;;1.00;;
58470;SDS011;44258;51.288;12.068;2023-07-13T12:15:57;1.77;;;0.80;;
58470;SDS011;44258;51.288;12.068;2023-07-13T12:18:44;3.33;;;1.00;;
58470;SDS011;44258;51.288;12.068;2023-07-13T12:21:36;2.20;;;1.10;;
58470;SDS011;44258;51.288;12.068;2023-07-13T12:24:24;0.85;;;0.70;;
58470;SDS011;44258;51.288;12.068;2023-07-13T12:27:20;1.83;;;1.10;;
58470;SDS011;44258;51.288;12.068;2023-07-13T12:30:21;2.70;;;0.88;;
58470;SDS011;44258;51.288;12.068;2023-07-13T12:33:12;3.28;;;1.27;;
58470;SDS011;44258;51.288;12.068;2023-07-13T12:36:01;2.65;;;0.90;;
58470;SDS011;44258;51.288;12.068;2023-07-13T12:38:51;2.08;;;1.00;;
58470;SDS011;44258;51.288;12.068;2023-07-13T12:41:38;3.22;;;1.00;;
58470;SDS011;44258;51.288;12.068;2023-07-13T12:44:26;3.17;;;1.10;;
58470;SDS011;44258;51.288;12.068;2023-07-13T12:47:15;4.57;;;0.90;;
58470;SDS011;44258;51.288;12.068;2023-07-13T12:50:03;3.30;;;0.70;;
58470;SDS011;44258;51.288;12.068;2023-07-13T12:52:51;2.13;;;1.10;;
58470;SDS011;44258;51.288;12.068;2023-07-13T12:55:44;4.07;;;0.98;;
58470;SDS011;44258;51.288;12.068;2023-07-13T12:58:36;3.75;;;0.90;;
58470;SDS011;44258;51.288;12.068;2023-07-13T13:01:25;0.98;;;0.75;;
58470;SDS011;44258;51.288;12.068;2023-07-13T13:04:14;3.47;;;1.10;;
58470;SDS011;44258;51.288;12.068;2023-07-13T13:07:08;2.03;;;1.02;;
58470;SDS011;44258;51.288;12.068;2023-07-13T13:09:57;2.20;;;1.02;;
58470;SDS011;44258;51.288;12.068;2023-07-13T13:12:46;2.78;;;1.10;;
58470;SDS011;44258;51.288;12.068;2023-07-13T13:15:34;2.50;;;0.98;;
58470;SDS011;44258;51.288;12.068;2023-07-13T13:18:22;1.25;;;0.93;;
58470;SDS011;44258;51.288;12.068;2023-07-13T13:21:10;2.72;;;1.00;;
58470;SDS011;44258;51.288;12.068;2023-07-13T13:23:58;2.70;;;0.85;;
58470;SDS011;44258;51.288;12.068;2023-07-13T13:26:45;3.20;;;0.95;;
58470;SDS011;44258;51.288;12.068;2023-07-13T13:29:36;3.83;;;1.25;;
58470;SDS011;44258;51.288;12.068;2023-07-13T13:32:25;2.80;;;0.90;;
58470;SDS011;44258;51.288;12.068;2023-07-13T13:35:15;3.38;;;1.10;;
58470;SDS011;44258;51.288;12.068;2023-07-13T13:38:11;2.35;;;1.00;;
58470;SDS011;44258;51.288;12.068;2023-07-13T13:40:59;3.92;;;1.10;;
58470;SDS011;44258;51.288;12.068;2023-07-13T13:43:46;3.03;;;1.10;;
58470;SDS011;44258;51.288;12.068;2023-07-13T13:46:35;3.10;;;1.00;;
58470;SDS011;44258;51.288;12.068;2023-07-13T13:49:23;2.28;;;0.95;;
58470;SDS011;44258;51.288;12.068;2023-07-13T13:52:11;5.38;;;1.23;;
58470;SDS011;44258;51.288;12.068;2023-07-13T13:54:58;1.55;;;0.85;;
58470;SDS011;44258;51.288;12.068;2023-07-13T13:57:46;2.13;;;1.00;;
58470;SDS011;44258;51.288;12.068;2023-07-13T14:00:33;3.50;;;1.40;;
58470;SDS011;44258;51.288;12.068;2023-07-13T14:03:21;2.15;;;1.00;;
58470;SDS011;44258;51.288;12.068;2023-07-13T14:06:10;2.15;;;1.10;;
58470;SDS011;44258;51.288;12.068;2023-07-13T14:08:59;3.20;;;1.20;;
58470;SDS011;44258;51.288;12.068;2023-07-13T14:11:46;3.33;;;1.50;;
58470;SDS011;44258;51.288;12.068;2023-07-13T14:14:36;3.20;;;1.00;;
58470;SDS011;44258;51.288;12.068;2023-07-13T14:17:24;3.17;;;1.35;;
58470;SDS011;44258;51.288;12.068;2023-07-13T14:20:15;3.45;;;1.35;;
58470;SDS011;44258;51.288;12.068;2023-07-13T14:23:02;3.55;;;1.10;;
58470;SDS011;44258;51.288;12.068;2023-07-13T14:25:50;3.08;;;1.55;;
58470;SDS011;44258;51.288;12.068;2023-07-13T14:28:37;4.65;;;1.48;;
58470;SDS011;44258;51.288;12.068;2023-07-13T14:31:30;3.22;;;1.45;;
58470;SDS011;44258;51.288;12.068;2023-07-13T14:34:17;4.43;;;1.38;;
58470;SDS011;44258;51.288;12.068;2023-07-13T14:37:08;3.22;;;1.30;;
58470;SDS011;44258;51.288;12.068;2023-07-13T14:39:59;3.45;;;1.13;;
58470;SDS011;44258;51.288;12.068;2023-07-13T14:42:46;4.65;;;1.08;;
58470;SDS011;44258;51.288;12.068;2023-07-13T14:45:36;4.57;;;1.40;;
58470;SDS011;44258;51.288;12.068;2023-07-13T14:48:26;2.13;;;1.10;;
58470;SDS011;44258;51.288;12.068;2023-07-13T14:51:13;3.80;;;1.35;;
58470;SDS011;44258;51.288;12.068;2023-07-13T14:54:02;1.90;;;1.02;;
58470;SDS011;44258;51.288;12.068;2023-07-13T14:56:51;2.55;;;1.17;;
58470;SDS011;44258;51.288;12.068;2023-07-13T14:59:38;5.05;;;1.50;;
58470;SDS011;44258;51.288;12.068;2023-07-13T15:02:30;4.75;;;1.48;;
58470;SDS011;44258;51.288;12.068;2023-07-13T15:05:20;3.28;;;1.25;;
58470;SDS011;44258;51.288;12.068;2023-07-13T15:08:10;2.60;;;1.27;;
58470;SDS011;44258;51.288;12.068;2023-07-13T15:10:58;4.47;;;1.10;;
58470;SDS011;44258;51.288;12.068;2023-07-13T15:13:45;2.45;;;1.10;;
58470;SDS011;44258;51.288;12.068;2023-07-13T15:16:32;3.97;;;1.13;;
58470;SDS011;44258;51.288;12.068;2023-07-13T15:19:21;3.00;;;1.40;;
58470;SDS011;44258;51.288;12.068;2023-07-13T15:22:11;3.13;;;1.38;;
58470;SDS011;44258;51.288;12.068;2023-07-13T15:25:02;2.92;;;1.20;;
58470;SDS011;44258;51.288;12.068;2023-07-13T15:27:50;2.42;;;1.20;;
58470;SDS011;44258;51.288;12.068;2023-07-13T15:30:40;4.28;;;1.42;;
58470;SDS011;44258;51.288;12.068;2023-07-13T15:33:29;4.05;;;1.40;;
58470;SDS011;44258;51.288;12.068;2023-07-13T15:36:19;2.63;;;1.00;;
58470;SDS011;44258;51.288;12.068;2023-07-13T15:39:08;7.93;;;1.80;;
58470;SDS011;44258;51.288;12.068;2023-07-13T15:42:02;3.53;;;1.30;;
58470;SDS011;44258;51.288;12.068;2023-07-13T15:44:52;1.55;;;1.20;;
58470;SDS011;44258;51.288;12.068;2023-07-13T15:47:40;3.60;;;1.35;;
58470;SDS011;44258;51.288;12.068;2023-07-13T15:50:29;2.58;;;1.10;;
58470;SDS011;44258;51.288;12.068;2023-07-13T15:53:29;4.07;;;1.08;;
58470;SDS011;44258;51.288;12.068;2023-07-13T15:56:19;3.42;;;1.20;;
58470;SDS011;44258;51.288;12.068;2023-07-13T15:59:08;3.97;;;1.30;;
58470;SDS011;44258;51.288;12.068;2023-07-13T16:02:03;3.90;;;1.50;;
58470;SDS011;44258;51.288;12.068;2023-07-13T16:04:58;2.05;;;1.05;;
58470;SDS011;44258;51.288;12.068;2023-07-13T16:07:47;3.90;;;1.73;;
58470;SDS011;44258;51.288;12.068;2023-07-13T16:10:37;7.40;;;2.60;;
58470;SDS011;44258;51.288;12.068;2023-07-13T16:13:26;3.97;;;1.42;;
58470;SDS011;44258;51.288;12.068;2023-07-13T16:16:14;2.38;;;1.02;;
58470;SDS011;44258;51.288;12.068;2023-07-13T16:19:06;3.55;;;1.15;;
58470;SDS011;44258;51.288;12.068;2023-07-13T16:21:58;2.28;;;1.00;;
58470;SDS011;44258;51.288;12.068;2023-07-13T16:24:46;6.38;;;1.98;;
58470;SDS011;44258;51.288;12.068;2023-07-13T16:27:35;3.92;;;1.42;;
58470;SDS011;44258;51.288;12.068;2023-07-13T16:30:22;4.53;;;1.80;;
58470;SDS011;44258;51.288;12.068;2023-07-13T16:33:11;6.80;;;2.35;;
58470;SDS011;44258;51.288;12.068;2023-07-13T16:36:01;5.53;;;1.50;;
58470;SDS011;44258;51.288;12.068;2023-07-13T16:38:48;2.03;;;1.08;;
58470;SDS011;44258;51.288;12.068;2023-07-13T16:41:36;1.73;;;0.90;;
58470;SDS011;44258;51.288;12.068;2023-07-13T16:44:23;2.80;;;0.98;;
58470;SDS011;44258;51.288;12.068;2023-07-13T16:47:13;1.90;;;0.98;;
58470;SDS011;44258;51.288;12.068;2023-07-13T16:50:04;4.22;;;1.20;;
58470;SDS011;44258;51.288;12.068;2023-07-13T16:53:08;3.28;;;0.88;;
58470;SDS011;44258;51.288;12.068;2023-07-13T16:55:59;4.07;;;1.13;;
58470;SDS011;44258;51.288;12.068;2023-07-13T16:58:52;3.15;;;1.30;;
58470;SDS011;44258;51.288;12.068;2023-07-13T17:01:40;3.47;;;0.93;;